Time,TemperatureF,DewpointF,PressureIn,WindDirection,WindDirectionDegrees,WindSpeedMPH,WindSpeedGustMPH,Humidity,HourlyPrecipIn,Conditions,Clouds,dailyrainin,SoftwareType,DateUTC
2013-09-07 00:24:00,68.0,67.0,30.08,ENE,75,0.0,0.0,96,0.00,,,0.00,,2013-09-07 04:24:00,
2013-09-07 00:54:00,67.0,66.0,30.09,ENE,75,0.0,0.0,96,0.00,,,0.00,,2013-09-07 04:54:00,
2013-09-07 01:13:00,67.0,66.0,30.08,ENE,75,0.0,0.0,96,0.00,,,0.00,,2013-09-07 05:13:00,
2013-09-07 01:23:00,66.0,65.0,30.08,ENE,75,0.0,0.0,97,0.00,,,0.00,,2013-09-07 05:23:00,
2013-09-07 01:52:00,66.0,65.0,30.08,ENE,75,0.0,0.0,97,0.00,,,0.00,,2013-09-07 05:52:00,
2013-09-07 02:13:00,66.0,65.0,30.08,ENE,75,0.0,0.0,97,0.00,,,0.00,,2013-09-07 06:13:00,
2013-09-07 02:22:00,66.0,65.0,30.08,ENE,75,0.0,0.0,97,0.00,,,0.00,,2013-09-07 06:22:00,
2013-09-07 02:52:00,65.0,64.0,30.08,ENE,75,0.0,0.0,97,0.00,,,0.00,,2013-09-07 06:52:00,
2013-09-07 03:12:00,65.0,64.0,30.08,ENE,75,0.0,1.0,97,0.00,,,0.00,,2013-09-07 07:12:00,
2013-09-07 03:22:00,65.0,64.0,30.08,ENE,75,0.0,0.0,97,0.00,,,0.00,,2013-09-07 07:22:00,
2013-09-07 03:52:00,64.0,63.0,30.07,ENE,75,0.0,0.0,97,0.00,,,0.00,,2013-09-07 07:52:00,
2013-09-07 04:12:00,64.0,63.0,30.07,ENE,75,0.0,0.0,97,0.00,,,0.00,,2013-09-07 08:12:00,
2013-09-07 04:22:00,64.0,63.0,30.08,ENE,75,0.0,0.0,97,0.00,,,0.00,,2013-09-07 08:22:00,
2013-09-07 04:53:00,64.0,63.0,30.08,ENE,75,0.0,0.0,97,0.00,,,0.00,,2013-09-07 08:53:00,
2013-09-07 05:12:00,63.0,62.0,30.08,ENE,75,0.0,0.0,97,0.00,,,0.00,,2013-09-07 09:12:00,
2013-09-07 05:21:00,63.0,62.0,30.08,ENE,75,0.0,0.0,97,0.00,,,0.00,,2013-09-07 09:21:00,
2013-09-07 05:52:00,63.0,62.0,30.08,ENE,75,0.0,0.0,97,0.00,,,0.00,,2013-09-07 09:52:00,
2013-09-07 06:11:00,63.0,62.0,30.08,ENE,75,0.0,0.0,97,0.00,,,0.00,,2013-09-07 10:11:00,
2013-09-07 06:21:00,63.0,62.0,30.09,ENE,75,0.0,0.0,97,0.00,,,0.00,,2013-09-07 10:21:00,
2013-09-07 06:52:00,62.0,61.0,30.09,ENE,75,0.0,0.0,97,0.00,,,0.00,,2013-09-07 10:52:00,
2013-09-07 07:13:00,62.0,61.0,30.09,ENE,77,0.0,1.0,97,0.00,,,0.00,,2013-09-07 11:13:00,
2013-09-07 07:23:00,62.0,61.0,30.10,ENE,77,0.0,0.0,97,0.00,,,0.00,,2013-09-07 11:23:00,
2013-09-07 07:53:00,62.0,61.0,30.10,ENE,77,0.0,0.0,98,0.00,,,0.00,,2013-09-07 11:53:00,
2013-09-07 08:12:00,63.0,62.0,30.11,ENE,76,0.0,0.0,98,0.00,,,0.00,,2013-09-07 12:12:00,
2013-09-07 08:22:00,63.0,62.0,30.11,ENE,77,0.0,0.0,98,0.00,,,0.00,,2013-09-07 12:22:00,
2013-09-07 08:52:00,67.0,66.0,30.11,ENE,77,0.0,0.0,98,0.01,,,0.01,,2013-09-07 12:52:00,
2013-09-07 09:12:00,69.0,68.0,30.11,ENE,76,0.0,1.0,97,0.01,,,0.01,,2013-09-07 13:12:00,
2013-09-07 09:21:00,71.0,69.0,30.11,East,95,1.0,3.0,92,0.01,,,0.01,,2013-09-07 13:21:00,
2013-09-07 09:52:00,74.0,70.0,30.11,NE,53,1.0,2.0,88,0.00,,,0.01,,2013-09-07 13:52:00,
2013-09-07 10:11:00,75.0,71.0,30.11,NE,46,0.0,2.0,87,0.00,,,0.01,,2013-09-07 14:11:00,
2013-09-07 10:22:00,76.0,71.0,30.11,ENE,69,0.0,2.0,84,0.00,,,0.01,,2013-09-07 14:22:00,
2013-09-07 10:52:00,78.0,72.0,30.11,NNW,338,1.0,3.0,82,0.00,,,0.01,,2013-09-07 14:52:00,
2013-09-07 11:11:00,80.0,72.0,30.11,ESE,110,2.0,3.0,78,0.00,,,0.01,,2013-09-07 15:11:00,
2013-09-07 11:23:00,81.0,72.0,30.11,NNE,33,2.0,5.0,73,0.00,,,0.01,,2013-09-07 15:23:00,
2013-09-07 11:54:00,82.0,70.0,30.11,ENE,60,2.0,6.0,68,0.00,,,0.01,,2013-09-07 15:54:00,
2013-09-07 12:24:00,83.0,69.0,30.10,East,82,2.0,4.0,63,0.00,,,0.01,,2013-09-07 16:24:00,
2013-09-07 12:53:00,84.0,70.0,30.09,ENE,68,2.0,4.0,63,0.00,,,0.01,,2013-09-07 16:53:00,
2013-09-07 13:24:00,86.0,69.0,30.09,North,9,1.0,5.0,58,0.00,,,0.01,,2013-09-07 17:24:00,
2013-09-07 13:43:00,86.0,69.0,30.08,North,349,3.0,6.0,57,0.00,,,0.01,,2013-09-07 17:43:00,
2013-09-07 13:52:00,86.0,70.0,30.08,NW,323,2.0,4.0,59,0.00,,,0.01,,2013-09-07 17:52:00,
2013-09-07 14:13:00,87.0,69.0,30.07,ENE,70,3.0,8.0,55,0.00,,,0.01,,2013-09-07 18:13:00,
2013-09-07 14:22:00,88.0,72.0,30.06,SW,232,0.0,1.0,60,0.00,,,0.01,,2013-09-07 18:22:00,
2013-09-07 14:52:00,88.0,70.0,30.05,East,93,1.0,3.0,55,0.00,,,0.01,,2013-09-07 18:52:00,
2013-09-07 15:11:00,86.0,70.0,30.04,SE,132,1.0,2.0,59,0.00,,,0.01,,2013-09-07 19:11:00,
2013-09-07 15:22:00,88.0,71.0,30.03,West,280,0.0,2.0,57,0.00,,,0.01,,2013-09-07 19:22:00,
2013-09-07 15:52:00,88.0,69.0,30.03,NE,44,0.0,5.0,53,0.00,,,0.01,,2013-09-07 19:52:00,
2013-09-07 16:22:00,88.0,68.0,30.02,East,85,1.0,3.0,51,0.00,,,0.01,,2013-09-07 20:22:00,
2013-09-07 16:53:00,88.0,69.0,30.01,WSW,240,0.0,3.0,53,0.00,,,0.01,,2013-09-07 20:53:00,
2013-09-07 17:22:00,88.0,69.0,30.00,North,1,0.0,3.0,53,0.00,,,0.01,,2013-09-07 21:22:00,
2013-09-07 17:54:00,87.0,70.0,30.00,NW,315,0.0,1.0,58,0.00,,,0.01,,2013-09-07 21:54:00,
2013-09-07 18:24:00,83.0,71.0,29.99,NW,314,0.0,0.0,68,0.00,,,0.01,,2013-09-07 22:24:00,
2013-09-07 18:53:00,80.0,71.0,29.99,NW,315,0.0,0.0,74,0.00,,,0.01,,2013-09-07 22:53:00,
2013-09-07 19:23:00,78.0,70.0,29.98,NW,314,0.0,0.0,77,0.00,,,0.01,,2013-09-07 23:23:00,
2013-09-07 20:22:00,74.0,70.0,29.99,NW,315,0.0,0.0,86,0.00,,,0.01,,2013-09-08 00:22:00,
2013-09-07 20:42:00,73.0,69.0,30.00,NW,314,0.0,0.0,87,0.00,,,0.01,,2013-09-08 00:42:00,
2013-09-07 20:52:00,72.0,69.0,30.00,NW,314,0.0,0.0,89,0.00,,,0.01,,2013-09-08 00:52:00,
2013-09-07 21:11:00,71.0,68.0,30.00,NW,314,0.0,0.0,91,0.00,,,0.01,,2013-09-08 01:11:00,
2013-09-07 21:22:00,71.0,69.0,30.01,NW,315,0.0,0.0,92,0.00,,,0.01,,2013-09-08 01:22:00,
2013-09-07 21:42:00,70.0,68.0,30.01,NW,315,0.0,0.0,93,0.00,,,0.01,,2013-09-08 01:42:00,
2013-09-07 21:52:00,70.0,68.0,30.02,NW,315,0.0,0.0,93,0.00,,,0.01,,2013-09-08 01:52:00,
2013-09-07 22:12:00,69.0,67.0,30.02,NW,315,0.0,0.0,94,0.00,,,0.01,,2013-09-08 02:12:00,
2013-09-07 22:23:00,69.0,67.0,30.02,NW,315,0.0,1.0,94,0.00,,,0.01,,2013-09-08 02:23:00,
2013-09-07 22:43:00,69.0,68.0,30.02,NW,315,0.0,0.0,95,0.00,,,0.01,,2013-09-08 02:43:00,
2013-09-07 22:52:00,68.0,67.0,30.02,NW,314,0.0,0.0,95,0.00,,,0.01,,2013-09-08 02:52:00,
2013-09-07 23:23:00,68.0,67.0,30.01,NW,315,0.0,0.0,95,0.00,,,0.01,,2013-09-08 03:23:00,
2013-09-07 23:54:00,67.0,66.0,30.01,NW,315,0.0,0.0,96,0.00,,,0.01,,2013-09-08 03:54:00,